createdAt,value
2023-05-19T00:01:14.464Z,101839.16
2023-05-19T00:06:16.510Z,101834.69
2023-05-19T00:11:18.415Z,101830.38
2023-05-19T00:16:20.564Z,101830.22
2023-05-19T00:21:22.327Z,101826.75
2023-05-19T00:26:25.020Z,101828.66
2023-05-19T00:31:34.374Z,101829.97
2023-05-19T00:36:36.167Z,101825.34
2023-05-19T00:41:37.785Z,101833.34
2023-05-19T00:46:39.387Z,101834.91
2023-05-19T00:51:41.164Z,101838.81
2023-05-19T00:56:42.796Z,101838.81
2023-05-19T01:01:44.472Z,101830.81
2023-05-19T01:06:49.485Z,101833.44
2023-05-19T01:11:51.132Z,101828.94
2023-05-19T01:17:35.924Z,101836.13
2023-05-19T01:23:05.449Z,101828.03
2023-05-19T01:28:31.335Z,101819.41
2023-05-19T01:33:33.936Z,101816.38
2023-05-19T01:38:38.545Z,101815.03
2023-05-19T01:43:40.415Z,101815.88
2023-05-19T01:48:44.584Z,101819.47
2023-05-19T01:53:46.222Z,101815.19
2023-05-19T01:58:55.955Z,101816.38
2023-05-19T02:04:25.024Z,101810.16
2023-05-19T02:09:29.533Z,101814.78
2023-05-19T02:14:45.561Z,101819.66
2023-05-19T02:19:47.362Z,101827.72
2023-05-19T02:24:49.624Z,101823.22
2023-05-19T02:29:51.253Z,101824.00
2023-05-19T02:34:52.821Z,101830.56
2023-05-19T02:39:54.763Z,101824.69
2023-05-19T02:44:56.412Z,101811.47
2023-05-19T02:49:57.986Z,101806.41
2023-05-19T02:54:59.628Z,101817.41
2023-05-19T03:00:01.192Z,101808.75
2023-05-19T03:05:03.164Z,101810.53
2023-05-19T03:10:05.359Z,101803.25
2023-05-19T03:15:07.377Z,101797.63
2023-05-19T03:20:09.431Z,101799.28
2023-05-19T03:25:11.073Z,101801.03
2023-05-19T03:30:13.432Z,101799.66
2023-05-19T03:35:27.799Z,101802.38
2023-05-19T03:40:29.391Z,101806.72
2023-05-19T03:45:37.921Z,101806.16
2023-05-19T03:50:57.351Z,101806.19
2023-05-19T03:56:01.606Z,101810.44
2023-05-19T04:01:03.167Z,101799.41
2023-05-19T04:06:05.587Z,101799.84
2023-05-19T04:11:07.284Z,101803.97
2023-05-19T04:16:08.966Z,101803.06
2023-05-19T04:21:10.560Z,101808.22
2023-05-19T04:26:13.203Z,101812.59
2023-05-19T04:31:15.360Z,101811.88
2023-05-19T04:36:17.949Z,101811.63
2023-05-19T04:41:19.710Z,101816.13
2023-05-19T04:46:21.326Z,101820.91
2023-05-19T04:51:23.604Z,101813.84
2023-05-19T04:56:25.549Z,101821.09
2023-05-19T05:01:27.366Z,101820.00
2023-05-19T05:06:30.388Z,101826.06
2023-05-19T05:11:33.092Z,101825.06
2023-05-19T05:16:36.265Z,101831.88
2023-05-19T05:21:38.322Z,101836.25
2023-05-19T05:26:43.082Z,101847.06
2023-05-19T05:31:44.927Z,101836.16
2023-05-19T05:36:46.614Z,101843.88
2023-05-19T05:41:48.564Z,101851.75
2023-05-19T05:46:51.320Z,101838.56
2023-05-19T05:52:05.052Z,101841.28
2023-05-19T05:57:10.833Z,101835.72
2023-05-19T06:02:13.441Z,101839.03
2023-05-19T06:07:15.239Z,101849.81
2023-05-19T06:12:16.982Z,101854.66
2023-05-19T06:17:22.681Z,101845.84
2023-05-19T06:22:26.279Z,101845.41
2023-05-19T06:27:28.289Z,101842.69
2023-05-19T06:32:31.380Z,101832.44
2023-05-19T06:37:34.368Z,101834.38
2023-05-19T06:42:36.033Z,101837.44
2023-05-19T06:47:55.733Z,101842.97
2023-05-19T06:52:57.456Z,101846.59
2023-05-19T06:58:00.596Z,101839.75
2023-05-19T07:03:03.549Z,101838.50
2023-05-19T07:08:05.544Z,101835.22
2023-05-19T07:13:07.520Z,101841.38
2023-05-19T07:18:10.906Z,101837.19
2023-05-19T07:23:12.702Z,101835.50
2023-05-19T07:28:14.392Z,101831.38
2023-05-19T07:33:16.033Z,101821.94
2023-05-19T07:38:17.730Z,101825.13
2023-05-19T07:43:19.314Z,101825.94
2023-05-19T07:48:20.907Z,101835.28
2023-05-19T07:53:22.531Z,101827.22
2023-05-19T07:58:24.114Z,101820.16
2023-05-19T08:03:26.527Z,101819.50
2023-05-19T08:08:28.300Z,101816.75
2023-05-19T08:13:30.582Z,101809.88
2023-05-19T08:18:32.177Z,101799.16
2023-05-19T08:23:34.182Z,101796.94
2023-05-19T08:28:35.742Z,101797.53
2023-05-19T08:33:37.404Z,101787.88
2023-05-19T08:38:39.320Z,101781.81
2023-05-19T08:43:40.891Z,101784.16
2023-05-19T08:48:44.337Z,101778.56
2023-05-19T08:53:50.792Z,101775.25
2023-05-19T08:58:52.983Z,101773.13
2023-05-19T09:03:55.059Z,101761.31
2023-05-19T09:08:56.878Z,101767.41
2023-05-19T09:13:58.512Z,101755.31
2023-05-19T09:19:00.332Z,101744.31
2023-05-19T09:24:06.606Z,101756.47
2023-05-19T09:29:16.356Z,101738.25
2023-05-19T09:34:18.929Z,101731.66
2023-05-19T09:39:22.942Z,101734.41
2023-05-19T09:44:26.136Z,101729.78
2023-05-19T09:49:29.370Z,101731.91
2023-05-19T09:54:31.363Z,101725.50
2023-05-19T09:59:33.950Z,101709.16
2023-05-19T10:04:36.161Z,101711.69
2023-05-19T10:09:39.257Z,101702.38
2023-05-19T10:14:41.156Z,101706.13
2023-05-19T10:19:43.798Z,101701.56
2023-05-19T10:24:45.366Z,101692.69
2023-05-19T10:29:49.840Z,101688.34
2023-05-19T10:34:57.604Z,101680.97
2023-05-19T10:40:00.050Z,101671.38
2023-05-19T10:45:17.222Z,101676.16
2023-05-19T10:50:20.324Z,101679.13
2023-05-19T10:55:51.856Z,101672.47
2023-05-19T11:01:00.801Z,101669.16
2023-05-19T11:06:27.173Z,101661.44
2023-05-19T11:11:46.918Z,101657.81
2023-05-19T11:16:50.635Z,101648.75
2023-05-19T11:21:53.359Z,101649.22
2023-05-19T11:26:54.910Z,101651.06
2023-05-19T11:31:56.610Z,101639.03
2023-05-19T11:36:59.036Z,101627.78
2023-05-19T11:42:00.633Z,101638.75
2023-05-19T11:47:02.392Z,101632.91
2023-05-19T11:52:04.772Z,101629.19
2023-05-19T11:57:08.996Z,101623.81
2023-05-19T12:02:18.092Z,101615.97
2023-05-19T12:07:22.531Z,101602.31
2023-05-19T12:12:24.158Z,101609.84
2023-05-19T12:17:25.845Z,101600.28
2023-05-19T12:22:27.548Z,101595.94
2023-05-19T12:27:29.150Z,101584.84
2023-05-19T12:32:33.870Z,101578.28
2023-05-19T12:37:36.619Z,101585.38
2023-05-19T12:42:38.275Z,101579.72
2023-05-19T12:47:40.056Z,101571.91
2023-05-19T12:52:44.566Z,101574.63
2023-05-19T12:57:50.544Z,101562.00
2023-05-19T13:03:01.530Z,101565.47
2023-05-19T13:08:06.284Z,101564.94
2023-05-19T13:13:09.040Z,101557.19
2023-05-19T13:18:12.504Z,101555.66
2023-05-19T13:23:14.405Z,101546.03
2023-05-19T13:28:16.136Z,101545.25
2023-05-19T13:33:17.766Z,101541.69
2023-05-19T13:38:19.379Z,101534.19
2023-05-19T13:43:20.925Z,101520.84
2023-05-19T13:48:22.568Z,101516.25
2023-05-19T13:53:24.153Z,101518.69
2023-05-19T13:58:25.932Z,101509.22
2023-05-19T14:03:27.546Z,101506.94
2023-05-19T14:08:29.230Z,101503.97
2023-05-19T14:13:33.390Z,101499.88
2023-05-19T14:18:36.966Z,101497.13
2023-05-19T14:23:38.564Z,101499.81
2023-05-19T14:28:40.440Z,101494.69
2023-05-19T14:33:42.018Z,101490.84
2023-05-19T14:38:43.706Z,101497.81
2023-05-19T14:43:46.972Z,101493.28
2023-05-19T14:48:48.681Z,101496.97
2023-05-19T14:53:50.244Z,101488.63
2023-05-19T14:58:51.847Z,101484.16
2023-05-19T15:03:53.501Z,101479.16
2023-05-19T15:08:55.289Z,101484.97
2023-05-19T15:13:56.859Z,101464.94
2023-05-19T15:18:58.590Z,101467.59
2023-05-19T15:24:00.164Z,101462.34
2023-05-19T15:29:01.835Z,101462.00
2023-05-19T15:34:03.373Z,101466.13
2023-05-19T15:39:04.953Z,101455.34
2023-05-19T15:44:06.587Z,101442.28
2023-05-19T15:49:08.168Z,101440.72
2023-05-19T15:54:10.109Z,101433.53
2023-05-19T15:59:11.710Z,101426.28
2023-05-19T16:04:13.416Z,101433.75
2023-05-19T16:09:15.127Z,101428.63
2023-05-19T16:14:16.717Z,101422.22
2023-05-19T16:19:18.325Z,101415.16
2023-05-19T16:24:19.926Z,101425.06
2023-05-19T16:29:21.638Z,101410.41
2023-05-19T16:34:23.209Z,101402.91
2023-05-19T16:39:24.765Z,101405.81
2023-05-19T16:44:26.355Z,101402.91
2023-05-19T16:49:27.905Z,101393.84
2023-05-19T16:54:29.500Z,101391.78
2023-05-19T16:59:31.076Z,101405.03
2023-05-19T17:04:32.700Z,101397.56
2023-05-19T17:09:34.369Z,101394.91
2023-05-19T17:14:35.927Z,101395.47
2023-05-19T17:19:37.512Z,101386.47
2023-05-19T17:24:39.098Z,101397.13
2023-05-19T17:29:40.768Z,101403.94
2023-05-19T17:34:42.331Z,101403.88
2023-05-19T17:39:43.860Z,101399.09
2023-05-19T17:44:45.374Z,101406.88
2023-05-19T17:49:46.929Z,101401.19
2023-05-19T17:54:48.820Z,101402.44
2023-05-19T17:59:50.874Z,101411.75
2023-05-19T18:04:53.166Z,101415.88
2023-05-19T18:09:56.062Z,101422.66
2023-05-19T18:14:57.707Z,101422.75
2023-05-19T18:19:59.327Z,101420.47
2023-05-19T18:25:00.876Z,101428.22
2023-05-19T18:30:02.631Z,101432.03
2023-05-19T18:35:04.671Z,101434.44
2023-05-19T18:40:07.161Z,101439.56
2023-05-19T18:45:09.161Z,101434.03
2023-05-19T18:50:10.852Z,101434.03
2023-05-19T18:55:12.498Z,101448.44
2023-05-19T19:00:14.411Z,101446.31
2023-05-19T19:05:16.129Z,101452.59
2023-05-19T19:10:17.804Z,101444.91
2023-05-19T19:15:19.352Z,101458.88
2023-05-19T19:20:20.937Z,101467.53
2023-05-19T19:25:23.642Z,101475.16
2023-05-19T19:30:25.419Z,101478.72
2023-05-19T19:35:27.048Z,101481.44
2023-05-19T19:40:28.598Z,101485.31
2023-05-19T19:45:30.194Z,101490.97
2023-05-19T19:50:32.442Z,101498.38
2023-05-19T19:55:34.320Z,101515.66
2023-05-19T20:00:35.988Z,101507.59
2023-05-19T20:05:37.692Z,101507.59
2023-05-19T20:10:39.278Z,101505.91
2023-05-19T20:15:40.874Z,101502.63
2023-05-19T20:20:42.958Z,101510.13
2023-05-19T20:26:02.425Z,101507.75
2023-05-19T20:31:06.131Z,101515.44
2023-05-19T20:36:07.785Z,101518.25
2023-05-19T20:41:09.348Z,101527.25
2023-05-19T20:46:10.913Z,101526.34
2023-05-19T20:51:12.531Z,101536.34
2023-05-19T20:56:14.173Z,101540.91
2023-05-19T21:01:15.776Z,101538.09
2023-05-19T21:06:17.410Z,101530.34
2023-05-19T21:11:18.975Z,101541.75
2023-05-19T21:16:20.572Z,101546.88
2023-05-19T21:21:22.246Z,101549.34
2023-05-19T21:26:23.831Z,101553.47
2023-05-19T21:31:25.449Z,101548.78
2023-05-19T21:36:27.082Z,101555.31
2023-05-19T21:41:28.619Z,101549.41
2023-05-19T21:46:30.243Z,101553.88
2023-05-19T21:51:31.899Z,101553.28
2023-05-19T21:56:33.490Z,101553.69
2023-05-19T22:01:35.101Z,101555.31
2023-05-19T22:06:36.717Z,101552.63
2023-05-19T22:11:38.969Z,101548.50
2023-05-19T22:16:40.560Z,101547.47
2023-05-19T22:21:42.264Z,101549.44
2023-05-19T22:26:44.086Z,101541.50
2023-05-19T22:31:45.889Z,101554.13
2023-05-19T22:36:47.481Z,101542.34
2023-05-19T22:41:49.079Z,101548.00
2023-05-19T22:46:50.720Z,101551.75
2023-05-19T22:51:52.267Z,101541.84
2023-05-19T22:56:53.816Z,101537.75
2023-05-19T23:01:55.465Z,101536.97
2023-05-19T23:06:57.014Z,101534.88
2023-05-19T23:11:58.744Z,101535.41
2023-05-19T23:17:00.410Z,101544.19
2023-05-19T23:22:02.056Z,101530.13
2023-05-19T23:27:03.760Z,101534.25
2023-05-19T23:32:05.624Z,101524.91
2023-05-19T23:37:07.203Z,101525.50
2023-05-19T23:42:08.778Z,101523.03
2023-05-19T23:47:10.547Z,101527.03
2023-05-19T23:52:12.266Z,101532.47
2023-05-19T23:57:13.849Z,101527.94
